createdAt,value
2022-11-28T00:00:23.000Z,90
2022-11-28T00:01:49.000Z,91
2022-11-28T00:03:56.000Z,90
2022-11-28T00:06:47.000Z,90
2022-11-28T00:08:13.000Z,90
2022-11-28T00:10:20.000Z,90
2022-11-28T00:11:46.000Z,90
2022-11-28T00:13:52.000Z,90
2022-11-28T00:15:19.000Z,91
2022-11-28T00:17:25.000Z,90
2022-11-28T00:18:51.000Z,91
2022-11-28T00:20:57.000Z,91
2022-11-28T00:22:24.000Z,91
2022-11-28T00:24:30.000Z,91
2022-11-28T00:25:56.000Z,91
2022-11-28T00:28:02.000Z,91
2022-11-28T00:29:29.000Z,91
2022-11-28T00:31:35.000Z,91
2022-11-28T00:33:02.000Z,91
2022-11-28T00:35:08.000Z,90
2022-11-28T00:36:34.000Z,91
2022-11-28T00:38:41.000Z,91
2022-11-28T00:40:07.000Z,91
2022-11-28T00:42:13.000Z,91
2022-11-28T00:45:04.000Z,90
2022-11-28T00:46:31.000Z,91
2022-11-28T00:48:37.000Z,90
2022-11-28T00:50:03.000Z,91
2022-11-28T00:52:09.000Z,91
2022-11-28T00:53:36.000Z,91
2022-11-28T00:55:42.000Z,91
2022-11-28T00:57:09.000Z,91
2022-11-28T00:59:15.000Z,91
2022-11-28T01:00:41.000Z,91
2022-11-28T01:02:48.000Z,91
2022-11-28T01:04:14.000Z,92
2022-11-28T01:06:20.000Z,91
2022-11-28T01:07:47.000Z,92
2022-11-28T01:09:53.000Z,91
2022-11-28T01:11:20.000Z,92
2022-11-28T01:13:26.000Z,92
2022-11-28T01:14:52.000Z,91
2022-11-28T01:16:58.000Z,91
2022-11-28T01:18:25.000Z,91
2022-11-28T01:20:31.000Z,91
2022-11-28T01:23:22.000Z,92
2022-11-28T01:24:49.000Z,91
2022-11-28T01:26:55.000Z,92
2022-11-28T01:28:22.000Z,91
2022-11-28T01:30:28.000Z,91
2022-11-28T01:31:54.000Z,91
2022-11-28T01:34:01.000Z,91
2022-11-28T01:35:27.000Z,92
2022-11-28T01:37:33.000Z,92
2022-11-28T01:39:00.000Z,92
2022-11-28T01:41:06.000Z,92
2022-11-28T01:42:32.000Z,92
2022-11-28T01:44:39.000Z,92
2022-11-28T01:46:06.000Z,91
2022-11-28T01:48:12.000Z,91
2022-11-28T01:49:38.000Z,91
2022-11-28T01:51:44.000Z,92
2022-11-28T01:53:11.000Z,91
2022-11-28T01:55:17.000Z,92
2022-11-28T01:56:43.000Z,92
2022-11-28T01:58:50.000Z,92
2022-11-28T02:01:41.000Z,92
2022-11-28T02:03:07.000Z,92
2022-11-28T02:05:14.000Z,92
2022-11-28T02:06:40.000Z,92
2022-11-28T02:08:46.000Z,92
2022-11-28T02:10:13.000Z,93
2022-11-28T02:12:19.000Z,92
2022-11-28T02:13:45.000Z,93
2022-11-28T02:15:51.000Z,93
2022-11-28T02:17:18.000Z,92
2022-11-28T02:19:24.000Z,93
2022-11-28T02:20:50.000Z,93
2022-11-28T02:22:56.000Z,93
2022-11-28T02:24:23.000Z,93
2022-11-28T02:26:29.000Z,93
2022-11-28T02:27:56.000Z,93
2022-11-28T02:30:02.000Z,93
2022-11-28T02:31:28.000Z,93
2022-11-28T02:33:34.000Z,93
2022-11-28T02:35:01.000Z,93
2022-11-28T02:37:07.000Z,93
2022-11-28T02:39:58.000Z,93
2022-11-28T02:41:25.000Z,93
2022-11-28T02:43:31.000Z,93
2022-11-28T02:44:57.000Z,92
2022-11-28T02:47:03.000Z,93
2022-11-28T02:48:30.000Z,93
2022-11-28T02:50:36.000Z,93
2022-11-28T02:52:03.000Z,92
2022-11-28T02:54:09.000Z,92
2022-11-28T02:55:35.000Z,93
2022-11-28T02:57:41.000Z,92
2022-11-28T02:59:08.000Z,93
2022-11-28T03:01:14.000Z,92
2022-11-28T03:02:41.000Z,93
2022-11-28T03:04:47.000Z,93
2022-11-28T03:06:13.000Z,93
2022-11-28T03:08:19.000Z,92
2022-11-28T03:09:46.000Z,92
2022-11-28T03:11:52.000Z,93
2022-11-28T03:13:19.000Z,93
2022-11-28T03:15:25.000Z,93
2022-11-28T03:18:16.000Z,94
2022-11-28T03:19:42.000Z,94
2022-11-28T03:21:48.000Z,94
2022-11-28T03:23:15.000Z,93
2022-11-28T03:25:21.000Z,93
2022-11-28T03:26:47.000Z,93
2022-11-28T03:28:53.000Z,93
2022-11-28T03:30:20.000Z,93
2022-11-28T03:32:26.000Z,93
2022-11-28T03:33:53.000Z,93
2022-11-28T03:35:59.000Z,93
2022-11-28T03:37:25.000Z,93
2022-11-28T03:39:31.000Z,93
2022-11-28T03:40:58.000Z,93
2022-11-28T03:43:04.000Z,93
2022-11-28T03:44:30.000Z,93
2022-11-28T03:46:36.000Z,93
2022-11-28T03:48:03.000Z,93
2022-11-28T03:50:09.000Z,94
2022-11-28T03:51:36.000Z,94
2022-11-28T03:53:42.000Z,93
2022-11-28T03:56:33.000Z,93
2022-11-28T03:58:00.000Z,93
2022-11-28T04:00:06.000Z,93
2022-11-28T04:01:32.000Z,94
2022-11-28T04:03:38.000Z,94
2022-11-28T04:05:05.000Z,94
2022-11-28T04:07:11.000Z,94
2022-11-28T04:08:38.000Z,94
2022-11-28T04:10:44.000Z,93
2022-11-28T04:12:10.000Z,93
2022-11-28T04:14:16.000Z,93
2022-11-28T04:15:43.000Z,93
2022-11-28T04:17:49.000Z,93
2022-11-28T04:19:15.000Z,94
2022-11-28T04:21:21.000Z,93
2022-11-28T04:22:48.000Z,93
2022-11-28T04:24:54.000Z,93
2022-11-28T04:26:21.000Z,93
2022-11-28T04:28:27.000Z,93
2022-11-28T04:29:53.000Z,93
2022-11-28T04:31:59.000Z,93
2022-11-28T04:34:50.000Z,92
2022-11-28T04:36:17.000Z,93
2022-11-28T04:38:23.000Z,92
2022-11-28T04:39:50.000Z,92
2022-11-28T04:41:56.000Z,92
2022-11-28T04:43:22.000Z,92
2022-11-28T04:45:28.000Z,92
2022-11-28T04:46:55.000Z,92
2022-11-28T04:49:01.000Z,92
2022-11-28T04:50:28.000Z,91
2022-11-28T04:52:34.000Z,91
2022-11-28T04:54:00.000Z,91
2022-11-28T04:56:06.000Z,91
2022-11-28T04:57:33.000Z,91
2022-11-28T04:59:39.000Z,90
2022-11-28T05:01:05.000Z,91
2022-11-28T05:03:12.000Z,91
2022-11-28T05:04:38.000Z,90
2022-11-28T05:06:44.000Z,90
2022-11-28T05:08:11.000Z,90
2022-11-28T05:10:17.000Z,90
2022-11-28T05:13:08.000Z,92
2022-11-28T05:14:35.000Z,91
2022-11-28T05:16:41.000Z,92
2022-11-28T05:18:07.000Z,91
2022-11-28T05:20:13.000Z,91
2022-11-28T05:21:40.000Z,91
2022-11-28T05:23:46.000Z,92
2022-11-28T05:25:12.000Z,91
2022-11-28T05:27:19.000Z,91
2022-11-28T05:28:45.000Z,91
2022-11-28T05:30:51.000Z,91
2022-11-28T05:32:18.000Z,92
2022-11-28T05:34:24.000Z,92
2022-11-28T05:35:50.000Z,92
2022-11-28T05:37:57.000Z,91
2022-11-28T05:39:23.000Z,91
2022-11-28T05:41:29.000Z,91
2022-11-28T05:42:56.000Z,92
2022-11-28T05:45:02.000Z,91
2022-11-28T05:46:28.000Z,91
2022-11-28T05:48:34.000Z,91
2022-11-28T05:51:25.000Z,90
2022-11-28T05:52:52.000Z,90
2022-11-28T05:54:58.000Z,90
2022-11-28T05:56:25.000Z,91
2022-11-28T05:58:31.000Z,91
2022-11-28T05:59:57.000Z,91
2022-11-28T06:02:03.000Z,91
2022-11-28T06:03:30.000Z,90
2022-11-28T06:05:36.000Z,92
2022-11-28T06:07:09.000Z,90
2022-11-28T06:09:15.000Z,90
2022-11-28T06:10:42.000Z,90
2022-11-28T06:12:48.000Z,91
2022-11-28T06:14:14.000Z,91
2022-11-28T06:16:21.000Z,90
2022-11-28T06:17:48.000Z,90
2022-11-28T06:19:54.000Z,90
2022-11-28T06:21:20.000Z,90
2022-11-28T06:23:26.000Z,89
2022-11-28T06:24:53.000Z,91
2022-11-28T06:26:59.000Z,90
2022-11-28T06:29:50.000Z,90
2022-11-28T06:31:17.000Z,91
2022-11-28T06:33:23.000Z,91
2022-11-28T06:34:49.000Z,91
2022-11-28T06:36:56.000Z,91
2022-11-28T06:38:22.000Z,89
2022-11-28T06:40:28.000Z,91
2022-11-28T06:41:55.000Z,91
2022-11-28T06:44:01.000Z,91
2022-11-28T06:45:27.000Z,90
2022-11-28T06:47:33.000Z,91
2022-11-28T06:49:00.000Z,91
2022-11-28T06:51:06.000Z,91
2022-11-28T06:52:32.000Z,91
2022-11-28T06:54:39.000Z,91
2022-11-28T06:56:05.000Z,92
2022-11-28T06:58:11.000Z,91
2022-11-28T06:59:38.000Z,91
2022-11-28T07:01:44.000Z,91
2022-11-28T07:03:11.000Z,91
2022-11-28T07:05:17.000Z,92
2022-11-28T07:08:08.000Z,92
2022-11-28T07:09:34.000Z,92
2022-11-28T07:11:40.000Z,92
2022-11-28T07:13:07.000Z,91
2022-11-28T07:15:13.000Z,91
2022-11-28T07:16:40.000Z,91
2022-11-28T07:18:46.000Z,91
2022-11-28T07:20:12.000Z,91
2022-11-28T07:22:18.000Z,91
2022-11-28T07:23:45.000Z,91
2022-11-28T07:25:51.000Z,91
2022-11-28T07:27:18.000Z,91
2022-11-28T07:29:24.000Z,92
2022-11-28T07:30:50.000Z,92
2022-11-28T07:32:56.000Z,92
2022-11-28T07:34:23.000Z,92
2022-11-28T07:36:29.000Z,92
2022-11-28T07:37:55.000Z,91
2022-11-28T07:40:02.000Z,91
2022-11-28T07:41:28.000Z,91
2022-11-28T07:43:34.000Z,91
2022-11-28T07:46:26.000Z,91
2022-11-28T07:47:52.000Z,92
2022-11-28T07:49:59.000Z,91
2022-11-28T07:51:25.000Z,92
2022-11-28T07:53:31.000Z,91
2022-11-28T07:54:58.000Z,92
2022-11-28T07:57:04.000Z,92
2022-11-28T07:58:39.000Z,92
2022-11-28T08:00:45.000Z,92
2022-11-28T08:02:12.000Z,92
2022-11-28T08:04:18.000Z,91
2022-11-28T08:05:44.000Z,91
2022-11-28T08:07:51.000Z,92
2022-11-28T08:09:17.000Z,91
2022-11-28T08:11:23.000Z,91
2022-11-28T08:12:50.000Z,92
2022-11-28T08:14:56.000Z,92
2022-11-28T08:16:22.000Z,92
2022-11-28T08:18:29.000Z,92
2022-11-28T08:19:55.000Z,92
2022-11-28T08:22:01.000Z,92
2022-11-28T08:24:52.000Z,92
2022-11-28T08:26:19.000Z,92
2022-11-28T08:28:25.000Z,92
2022-11-28T08:29:52.000Z,91
2022-11-28T08:32:00.000Z,92
2022-11-28T08:33:26.000Z,92
2022-11-28T08:35:32.000Z,92
2022-11-28T08:36:59.000Z,92
2022-11-28T08:39:05.000Z,92
2022-11-28T08:40:50.000Z,92
2022-11-28T08:42:56.000Z,92
2022-11-28T08:44:23.000Z,92
2022-11-28T08:46:29.000Z,92
2022-11-28T08:47:55.000Z,92
2022-11-28T08:50:02.000Z,92
2022-11-28T08:51:28.000Z,91
2022-11-28T08:53:34.000Z,92
2022-11-28T08:55:01.000Z,92
2022-11-28T08:57:07.000Z,92
2022-11-28T08:58:33.000Z,92
2022-11-28T09:00:40.000Z,92
2022-11-28T09:03:31.000Z,92
2022-11-28T09:04:57.000Z,91
2022-11-28T09:07:03.000Z,90
2022-11-28T09:08:30.000Z,90
2022-11-28T09:10:36.000Z,91
2022-11-28T09:12:02.000Z,91
2022-11-28T09:14:09.000Z,92
2022-11-28T09:15:35.000Z,92
2022-11-28T09:17:41.000Z,92
2022-11-28T09:19:08.000Z,91
2022-11-28T09:21:14.000Z,91
2022-11-28T09:22:40.000Z,91
2022-11-28T09:24:46.000Z,91
2022-11-28T09:26:13.000Z,91
2022-11-28T09:28:19.000Z,91
2022-11-28T09:29:45.000Z,90
2022-11-28T09:31:52.000Z,92
2022-11-28T09:33:18.000Z,92
2022-11-28T09:35:24.000Z,92
2022-11-28T09:36:51.000Z,92
2022-11-28T09:38:57.000Z,92
2022-11-28T09:41:49.000Z,92
2022-11-28T09:43:15.000Z,91
2022-11-28T09:45:21.000Z,92
2022-11-28T09:46:48.000Z,92
2022-11-28T09:48:54.000Z,92
2022-11-28T09:50:21.000Z,92
2022-11-28T09:52:27.000Z,92
2022-11-28T09:53:54.000Z,91
2022-11-28T09:56:00.000Z,91
2022-11-28T09:57:26.000Z,91
2022-11-28T09:59:32.000Z,90
2022-11-28T10:00:59.000Z,91
2022-11-28T10:03:05.000Z,91
2022-11-28T10:04:31.000Z,91
2022-11-28T10:06:38.000Z,92
2022-11-28T10:08:04.000Z,91
2022-11-28T10:10:10.000Z,91
2022-11-28T10:11:37.000Z,91
2022-11-28T10:13:43.000Z,91
2022-11-28T10:15:33.000Z,91
2022-11-28T10:17:39.000Z,91
2022-11-28T10:20:30.000Z,91
2022-11-28T10:21:57.000Z,91
2022-11-28T10:24:05.000Z,91
2022-11-28T10:25:32.000Z,91
2022-11-28T10:27:38.000Z,90
2022-11-28T10:29:04.000Z,91
2022-11-28T10:31:10.000Z,90
2022-11-28T10:32:37.000Z,90
2022-11-28T10:34:43.000Z,90
2022-11-28T10:36:09.000Z,90
2022-11-28T10:38:16.000Z,91
2022-11-28T10:39:42.000Z,90
2022-11-28T10:41:49.000Z,91
2022-11-28T10:43:15.000Z,90
2022-11-28T10:45:21.000Z,91
2022-11-28T10:46:48.000Z,89
2022-11-28T10:48:54.000Z,90
2022-11-28T10:50:20.000Z,89
2022-11-28T10:52:27.000Z,90
2022-11-28T10:53:53.000Z,90
2022-11-28T10:55:59.000Z,89
2022-11-28T10:58:51.000Z,90
2022-11-28T11:00:17.000Z,90
2022-11-28T11:02:23.000Z,90
2022-11-28T11:03:50.000Z,90
2022-11-28T11:05:56.000Z,90
2022-11-28T11:07:22.000Z,91
2022-11-28T11:09:35.000Z,91
2022-11-28T11:11:02.000Z,91
2022-11-28T11:13:08.000Z,90
2022-11-28T11:14:34.000Z,90
2022-11-28T11:16:40.000Z,91
2022-11-28T11:18:07.000Z,91
2022-11-28T11:20:13.000Z,91
2022-11-28T11:21:40.000Z,91
2022-11-28T11:23:46.000Z,90
2022-11-28T11:25:12.000Z,90
2022-11-28T11:27:18.000Z,91
2022-11-28T11:28:45.000Z,90
2022-11-28T11:30:51.000Z,91
2022-11-28T11:32:18.000Z,91
2022-11-28T11:34:24.000Z,91
2022-11-28T11:37:15.000Z,90
2022-11-28T11:38:41.000Z,90
2022-11-28T11:40:47.000Z,90
2022-11-28T11:42:14.000Z,90
2022-11-28T11:44:20.000Z,91
2022-11-28T11:45:47.000Z,91
2022-11-28T11:47:58.000Z,91
2022-11-28T11:49:24.000Z,90
2022-11-28T11:51:31.000Z,90
2022-11-28T11:53:05.000Z,89
2022-11-28T11:55:11.000Z,90
2022-11-28T11:56:38.000Z,90
2022-11-28T11:58:44.000Z,91
2022-11-28T12:00:10.000Z,91
2022-11-28T12:02:16.000Z,90
2022-11-28T12:03:43.000Z,91
2022-11-28T12:05:49.000Z,91
2022-11-28T12:07:39.000Z,91
2022-11-28T12:09:45.000Z,90
2022-11-28T12:11:13.000Z,91
2022-11-28T12:13:19.000Z,91
2022-11-28T12:16:10.000Z,91
2022-11-28T12:17:36.000Z,91
2022-11-28T12:19:54.000Z,91
2022-11-28T12:21:21.000Z,91
2022-11-28T12:23:27.000Z,91
2022-11-28T12:24:54.000Z,91
2022-11-28T12:27:00.000Z,91
2022-11-28T12:28:26.000Z,91
2022-11-28T12:30:32.000Z,89
2022-11-28T12:31:59.000Z,90
2022-11-28T12:34:05.000Z,90
2022-11-28T12:35:31.000Z,91
2022-11-28T12:37:38.000Z,90
2022-11-28T12:39:36.000Z,90
2022-11-28T12:41:42.000Z,90
2022-11-28T12:43:08.000Z,90
2022-11-28T12:45:15.000Z,90
2022-11-28T12:46:41.000Z,90
2022-11-28T12:48:47.000Z,89
2022-11-28T12:50:19.000Z,88
2022-11-28T12:52:25.000Z,89
2022-11-28T12:55:17.000Z,89
2022-11-28T12:56:43.000Z,90
2022-11-28T12:58:49.000Z,90
2022-11-28T13:00:16.000Z,90
2022-11-28T13:02:22.000Z,90
2022-11-28T13:03:49.000Z,90
2022-11-28T13:05:55.000Z,90
2022-11-28T13:07:21.000Z,90
2022-11-28T13:09:27.000Z,90
2022-11-28T13:10:54.000Z,90
2022-11-28T13:13:00.000Z,89
2022-11-28T13:14:27.000Z,90
2022-11-28T13:16:33.000Z,89
2022-11-28T13:18:00.000Z,90
2022-11-28T13:20:06.000Z,90
2022-11-28T13:21:32.000Z,90
2022-11-28T13:23:38.000Z,90
2022-11-28T13:25:05.000Z,91
2022-11-28T13:27:11.000Z,90
2022-11-28T13:28:37.000Z,90
2022-11-28T13:30:43.000Z,91
2022-11-28T13:33:35.000Z,91
2022-11-28T13:35:01.000Z,91
2022-11-28T13:39:04.000Z,90
2022-11-28T13:41:19.000Z,90
2022-11-28T13:43:32.000Z,91
2022-11-28T13:45:39.000Z,90
2022-11-28T13:47:05.000Z,91
2022-11-28T13:49:12.000Z,91
2022-11-28T13:50:42.000Z,91
2022-11-28T13:52:48.000Z,91
2022-11-28T13:54:14.000Z,91
2022-11-28T13:56:21.000Z,91
2022-11-28T13:57:47.000Z,91
2022-11-28T13:59:53.000Z,91
2022-11-28T14:01:20.000Z,91
2022-11-28T14:03:26.000Z,91
2022-11-28T14:04:53.000Z,91
2022-11-28T14:06:59.000Z,91
2022-11-28T14:08:25.000Z,91
2022-11-28T14:10:32.000Z,91
2022-11-28T14:13:23.000Z,91
2022-11-28T14:14:50.000Z,92
2022-11-28T14:16:56.000Z,91
2022-11-28T14:18:22.000Z,91
2022-11-28T14:21:01.000Z,92
2022-11-28T14:22:27.000Z,92
2022-11-28T14:24:33.000Z,92
2022-11-28T14:26:00.000Z,92
2022-11-28T14:28:06.000Z,90
2022-11-28T14:29:33.000Z,92
2022-11-28T14:31:39.000Z,92
2022-11-28T14:33:05.000Z,92
2022-11-28T14:35:11.000Z,91
2022-11-28T14:36:38.000Z,92
2022-11-28T14:38:44.000Z,92
2022-11-28T14:40:11.000Z,92
2022-11-28T14:42:17.000Z,92
2022-11-28T14:44:25.000Z,92
2022-11-28T14:46:31.000Z,92
2022-11-28T14:47:58.000Z,92
2022-11-28T14:50:04.000Z,91
2022-11-28T14:52:55.000Z,91
2022-11-28T14:54:21.000Z,92
2022-11-28T14:56:28.000Z,92
2022-11-28T14:57:54.000Z,92
2022-11-28T15:00:00.000Z,92
2022-11-28T15:01:27.000Z,92
2022-11-28T15:03:33.000Z,92
2022-11-28T15:04:59.000Z,92
2022-11-28T15:07:06.000Z,92
2022-11-28T15:08:32.000Z,92
2022-11-28T15:10:38.000Z,92
2022-11-28T15:12:05.000Z,92
2022-11-28T15:14:11.000Z,92
2022-11-28T15:15:37.000Z,92
2022-11-28T15:17:43.000Z,92
2022-11-28T15:19:10.000Z,92
2022-11-28T15:21:16.000Z,92
2022-11-28T15:22:42.000Z,92
2022-11-28T15:24:48.000Z,92
2022-11-28T15:26:15.000Z,92
2022-11-28T15:28:21.000Z,92
2022-11-28T15:31:12.000Z,92
2022-11-28T15:32:39.000Z,92
2022-11-28T15:34:45.000Z,92
2022-11-28T15:36:12.000Z,92
2022-11-28T15:38:18.000Z,92
2022-11-28T15:39:44.000Z,92
2022-11-28T15:41:50.000Z,92
2022-11-28T15:43:17.000Z,92
2022-11-28T15:45:23.000Z,92
2022-11-28T15:46:49.000Z,92
2022-11-28T15:48:56.000Z,92
2022-11-28T15:50:22.000Z,92
2022-11-28T15:52:28.000Z,92
2022-11-28T15:53:55.000Z,93
2022-11-28T15:56:01.000Z,93
2022-11-28T15:57:27.000Z,93
2022-11-28T15:59:33.000Z,93
2022-11-28T16:01:00.000Z,93
2022-11-28T16:03:06.000Z,93
2022-11-28T16:04:33.000Z,93
2022-11-28T16:06:39.000Z,93
2022-11-28T16:09:30.000Z,93
2022-11-28T16:10:57.000Z,94
2022-11-28T16:13:03.000Z,93
2022-11-28T16:14:29.000Z,93
2022-11-28T16:16:35.000Z,93
2022-11-28T16:18:02.000Z,93
2022-11-28T16:20:08.000Z,93
2022-11-28T16:21:34.000Z,93
2022-11-28T16:23:41.000Z,93
2022-11-28T16:25:07.000Z,94
2022-11-28T16:27:13.000Z,93
2022-11-28T16:28:40.000Z,94
2022-11-28T16:30:46.000Z,94
2022-11-28T16:32:12.000Z,94
2022-11-28T16:34:18.000Z,94
2022-11-28T16:35:45.000Z,94
2022-11-28T16:37:51.000Z,94
2022-11-28T16:39:17.000Z,94
2022-11-28T16:41:24.000Z,95
2022-11-28T16:42:50.000Z,95
2022-11-28T16:44:56.000Z,95
2022-11-28T16:47:47.000Z,95
2022-11-28T16:49:14.000Z,95
2022-11-28T16:51:20.000Z,95
2022-11-28T16:52:46.000Z,95
2022-11-28T16:54:52.000Z,95
2022-11-28T16:56:19.000Z,95
2022-11-28T16:58:25.000Z,95
2022-11-28T16:59:52.000Z,96
2022-11-28T17:01:58.000Z,96
2022-11-28T17:03:24.000Z,96
2022-11-28T17:05:30.000Z,96
2022-11-28T17:06:57.000Z,96
2022-11-28T17:09:03.000Z,96
2022-11-28T17:10:30.000Z,96
2022-11-28T17:12:36.000Z,96
2022-11-28T17:14:02.000Z,97
2022-11-28T17:16:11.000Z,97
2022-11-28T17:17:37.000Z,97
2022-11-28T17:19:44.000Z,97
2022-11-28T17:21:10.000Z,98
2022-11-28T17:23:17.000Z,97
2022-11-28T17:26:08.000Z,97
2022-11-28T17:27:34.000Z,97
2022-11-28T17:29:41.000Z,97
2022-11-28T17:31:07.000Z,97
2022-11-28T17:33:14.000Z,97
2022-11-28T17:34:40.000Z,97
2022-11-28T17:36:47.000Z,98
2022-11-28T17:38:13.000Z,98
2022-11-28T17:40:19.000Z,98
2022-11-28T17:41:46.000Z,98
2022-11-28T17:43:52.000Z,98
2022-11-28T17:45:18.000Z,98
2022-11-28T17:47:24.000Z,97
2022-11-28T17:48:51.000Z,97
2022-11-28T17:50:57.000Z,98
2022-11-28T17:52:23.000Z,98
2022-11-28T17:54:30.000Z,98
2022-11-28T17:55:56.000Z,98
2022-11-28T17:58:02.000Z,98
2022-11-28T17:59:29.000Z,98
2022-11-28T18:01:35.000Z,98
2022-11-28T18:04:26.000Z,98
2022-11-28T18:05:53.000Z,98
2022-11-28T18:07:59.000Z,98
2022-11-28T18:09:25.000Z,98
2022-11-28T18:11:31.000Z,98
2022-11-28T18:12:58.000Z,98
2022-11-28T18:15:04.000Z,98
2022-11-28T18:16:30.000Z,98
2022-11-28T18:18:36.000Z,98
2022-11-28T18:20:03.000Z,98
2022-11-28T18:22:09.000Z,98
2022-11-28T18:23:36.000Z,98
2022-11-28T18:25:42.000Z,98
2022-11-28T18:27:08.000Z,98
2022-11-28T18:29:14.000Z,99
2022-11-28T18:30:41.000Z,98
2022-11-28T18:32:47.000Z,98
2022-11-28T18:34:13.000Z,98
2022-11-28T18:36:19.000Z,98
2022-11-28T18:37:46.000Z,98
2022-11-28T18:39:52.000Z,98
2022-11-28T18:42:43.000Z,99
2022-11-28T18:44:10.000Z,98
2022-11-28T18:46:16.000Z,99
2022-11-28T18:47:43.000Z,98
2022-11-28T18:49:49.000Z,98
2022-11-28T18:51:16.000Z,98
2022-11-28T18:53:22.000Z,98
2022-11-28T18:54:48.000Z,98
2022-11-28T18:56:54.000Z,98
2022-11-28T18:58:21.000Z,98
2022-11-28T19:00:27.000Z,98
2022-11-28T19:01:53.000Z,98
2022-11-28T19:04:00.000Z,98
2022-11-28T19:05:26.000Z,99
2022-11-28T19:07:32.000Z,99
2022-11-28T19:08:59.000Z,99
2022-11-28T19:11:05.000Z,99
2022-11-28T19:12:32.000Z,99
2022-11-28T19:14:38.000Z,99
2022-11-28T19:16:04.000Z,99
2022-11-28T19:18:10.000Z,99
2022-11-28T19:21:01.000Z,99
2022-11-28T19:22:28.000Z,99
2022-11-28T19:24:34.000Z,99
2022-11-28T19:26:01.000Z,99
2022-11-28T19:28:07.000Z,99
2022-11-28T19:29:33.000Z,99
2022-11-28T19:31:39.000Z,98
2022-11-28T19:33:06.000Z,98
2022-11-28T19:35:12.000Z,99
2022-11-28T19:36:38.000Z,99
2022-11-28T19:38:45.000Z,99
2022-11-28T19:40:11.000Z,99
2022-11-28T19:42:17.000Z,99
2022-11-28T19:43:44.000Z,99
2022-11-28T19:45:50.000Z,99
2022-11-28T19:47:16.000Z,99
2022-11-28T19:49:22.000Z,99
2022-11-28T19:50:49.000Z,99
2022-11-28T19:52:55.000Z,99
2022-11-28T19:54:22.000Z,99
2022-11-28T19:56:28.000Z,99
2022-11-28T19:59:19.000Z,99
2022-11-28T20:00:46.000Z,99
2022-11-28T20:02:52.000Z,99
2022-11-28T20:04:18.000Z,99
2022-11-28T20:06:24.000Z,99
2022-11-28T20:07:51.000Z,99
2022-11-28T20:10:04.000Z,99
2022-11-28T20:11:30.000Z,99
2022-11-28T20:13:36.000Z,99
2022-11-28T20:15:03.000Z,99
2022-11-28T20:17:09.000Z,99
2022-11-28T20:18:36.000Z,99
2022-11-28T20:20:42.000Z,99
2022-11-28T20:22:08.000Z,99
2022-11-28T20:24:14.000Z,99
2022-11-28T20:25:41.000Z,99
2022-11-28T20:27:47.000Z,99
2022-11-28T20:29:13.000Z,99
2022-11-28T20:31:20.000Z,99
2022-11-28T20:32:46.000Z,99
2022-11-28T20:34:53.000Z,100
2022-11-28T20:37:44.000Z,99
2022-11-28T20:39:10.000Z,99
2022-11-28T20:41:16.000Z,100
2022-11-28T20:42:43.000Z,100
2022-11-28T20:44:49.000Z,99
2022-11-28T20:46:16.000Z,99
2022-11-28T20:48:22.000Z,99
2022-11-28T20:49:48.000Z,100
2022-11-28T20:51:54.000Z,100
2022-11-28T20:53:21.000Z,100
2022-11-28T20:55:32.000Z,100
2022-11-28T20:56:59.000Z,100
2022-11-28T20:59:27.000Z,100
2022-11-28T21:00:53.000Z,99
2022-11-28T21:02:59.000Z,99
2022-11-28T21:04:26.000Z,99
2022-11-28T21:06:32.000Z,99
2022-11-28T21:07:58.000Z,100
2022-11-28T21:10:05.000Z,100
2022-11-28T21:11:31.000Z,99
2022-11-28T21:14:03.000Z,99
2022-11-28T21:16:54.000Z,99
2022-11-28T21:18:20.000Z,99
2022-11-28T21:20:27.000Z,99
2022-11-28T21:21:53.000Z,99
2022-11-28T21:23:59.000Z,99
2022-11-28T21:25:26.000Z,99
2022-11-28T21:27:32.000Z,99
2022-11-28T21:28:58.000Z,99
2022-11-28T21:31:04.000Z,99
2022-11-28T21:32:31.000Z,99
2022-11-28T21:34:37.000Z,99
2022-11-28T21:36:03.000Z,99
2022-11-28T21:38:10.000Z,99
2022-11-28T21:39:36.000Z,99
2022-11-28T21:41:42.000Z,99
2022-11-28T21:43:09.000Z,99
2022-11-28T21:45:15.000Z,99
2022-11-28T21:46:41.000Z,99
2022-11-28T21:48:47.000Z,99
2022-11-28T21:50:14.000Z,99
2022-11-28T21:52:20.000Z,99
2022-11-28T21:55:11.000Z,99
2022-11-28T21:56:38.000Z,99
2022-11-28T21:58:44.000Z,99
2022-11-28T22:00:10.000Z,99
2022-11-28T22:02:37.000Z,99
2022-11-28T22:04:04.000Z,99
2022-11-28T22:06:10.000Z,99
2022-11-28T22:07:36.000Z,99
2022-11-28T22:09:42.000Z,99
2022-11-28T22:11:09.000Z,99
2022-11-28T22:13:15.000Z,99
2022-11-28T22:14:42.000Z,99
2022-11-28T22:16:48.000Z,99
2022-11-28T22:18:14.000Z,99
2022-11-28T22:20:20.000Z,99
2022-11-28T22:21:47.000Z,100
2022-11-28T22:24:02.000Z,100
2022-11-28T22:25:29.000Z,100
2022-11-28T22:27:35.000Z,100
2022-11-28T22:29:01.000Z,100
2022-11-28T22:31:08.000Z,100
2022-11-28T22:33:59.000Z,99
2022-11-28T22:35:26.000Z,99
2022-11-28T22:37:32.000Z,99
2022-11-28T22:38:58.000Z,99
2022-11-28T22:41:04.000Z,99
2022-11-28T22:42:31.000Z,99
2022-11-28T22:44:37.000Z,99
2022-11-28T22:46:04.000Z,99
2022-11-28T22:48:10.000Z,100
2022-11-28T22:49:36.000Z,100
2022-11-28T22:51:42.000Z,100
2022-11-28T22:53:09.000Z,100
2022-11-28T22:55:15.000Z,100
2022-11-28T22:56:41.000Z,100
2022-11-28T22:58:47.000Z,100
2022-11-28T23:00:14.000Z,100
2022-11-28T23:02:20.000Z,100
2022-11-28T23:03:47.000Z,99
2022-11-28T23:05:53.000Z,99
2022-11-28T23:07:19.000Z,100
2022-11-28T23:09:26.000Z,100
2022-11-28T23:12:17.000Z,100
2022-11-28T23:13:43.000Z,100
2022-11-28T23:15:49.000Z,100
2022-11-28T23:17:19.000Z,100
2022-11-28T23:19:25.000Z,100
2022-11-28T23:20:52.000Z,100
2022-11-28T23:22:58.000Z,100
2022-11-28T23:24:24.000Z,100
2022-11-28T23:26:30.000Z,100
2022-11-28T23:27:57.000Z,100
2022-11-28T23:30:03.000Z,100
2022-11-28T23:31:29.000Z,100
2022-11-28T23:33:36.000Z,100
2022-11-28T23:35:02.000Z,100
2022-11-28T23:37:08.000Z,100
2022-11-28T23:38:35.000Z,100
2022-11-28T23:40:41.000Z,100
2022-11-28T23:42:07.000Z,100
2022-11-28T23:44:14.000Z,100
2022-11-28T23:45:40.000Z,100
2022-11-28T23:47:46.000Z,100
2022-11-28T23:50:37.000Z,100
2022-11-28T23:52:04.000Z,100
2022-11-28T23:54:10.000Z,100
2022-11-28T23:55:36.000Z,100
2022-11-28T23:57:42.000Z,100
2022-11-28T23:59:09.000Z,100
